createdAt,value
2022-11-10T00:02:02.098Z,5.45
2022-11-10T00:05:22.048Z,6.40
2022-11-10T00:08:42.231Z,6.00
2022-11-10T00:12:02.302Z,6.38
2022-11-10T00:15:40.855Z,6.20
2022-11-10T00:19:01.085Z,6.32
2022-11-10T00:22:25.848Z,6.45
2022-11-10T00:25:46.001Z,6.15
2022-11-10T00:29:05.960Z,6.18
2022-11-10T00:32:26.323Z,6.47
2022-11-10T00:35:46.630Z,6.88
2022-11-10T00:39:07.106Z,7.07
2022-11-10T00:42:27.423Z,7.07
2022-11-10T00:45:47.415Z,6.88
2022-11-10T00:49:07.634Z,7.25
2022-11-10T00:52:27.927Z,6.93
2022-11-10T00:55:49.028Z,7.00
2022-11-10T00:59:09.244Z,7.22
2022-11-10T01:02:29.403Z,6.85
2022-11-10T01:05:49.279Z,7.73
2022-11-10T01:09:09.326Z,6.20
2022-11-10T01:12:30.918Z,6.72
2022-11-10T01:15:51.203Z,7.32
2022-11-10T01:19:11.276Z,7.18
2022-11-10T01:22:31.462Z,6.32
2022-11-10T01:25:52.475Z,6.72
2022-11-10T01:29:12.768Z,7.00
2022-11-10T01:32:32.877Z,6.55
2022-11-10T01:35:52.979Z,4.72
2022-11-10T01:39:13.352Z,4.60
2022-11-10T01:42:49.192Z,3.50
2022-11-10T01:46:13.856Z,2.63
2022-11-10T01:49:35.970Z,2.10
2022-11-10T01:52:58.795Z,2.00
2022-11-10T01:56:20.605Z,1.60
2022-11-10T01:59:45.755Z,1.90
2022-11-10T02:03:18.784Z,2.00
2022-11-10T02:06:42.049Z,1.67
2022-11-10T02:10:03.611Z,1.70
2022-11-10T02:13:23.802Z,1.90
2022-11-10T02:16:44.448Z,1.55
2022-11-10T02:20:09.979Z,2.10
2022-11-10T02:23:30.088Z,2.22
2022-11-10T02:26:55.840Z,2.67
2022-11-10T02:30:16.725Z,2.63
2022-11-10T02:33:37.286Z,2.35
2022-11-10T02:36:57.243Z,2.30
2022-11-10T02:40:17.413Z,1.88
2022-11-10T02:43:39.030Z,1.92
2022-11-10T02:46:59.108Z,1.65
2022-11-10T02:50:19.353Z,1.60
2022-11-10T02:53:39.490Z,1.60
2022-11-10T02:57:02.659Z,1.60
2022-11-10T03:00:23.177Z,1.42
2022-11-10T03:03:43.272Z,1.55
2022-11-10T03:07:03.630Z,1.50
2022-11-10T03:10:24.828Z,1.40
2022-11-10T03:14:00.930Z,1.67
2022-11-10T03:17:22.187Z,1.48
2022-11-10T03:20:42.607Z,1.75
2022-11-10T03:24:02.750Z,1.90
2022-11-10T03:27:23.096Z,1.52
2022-11-10T03:30:43.935Z,1.52
2022-11-10T03:34:03.890Z,1.58
2022-11-10T03:37:24.605Z,1.67
2022-11-10T03:41:12.498Z,1.65
2022-11-10T03:44:25.190Z,1.60
2022-11-10T03:47:49.092Z,1.70
2022-11-10T03:51:09.246Z,1.60
2022-11-10T03:54:29.477Z,1.55
2022-11-10T03:57:49.732Z,1.60
2022-11-10T04:01:09.780Z,1.70
2022-11-10T04:04:48.301Z,1.95
2022-11-10T04:08:33.626Z,2.03
2022-11-10T04:12:12.608Z,1.92
2022-11-10T04:15:41.966Z,1.92
2022-11-10T04:19:01.896Z,1.80
2022-11-10T04:22:42.197Z,1.80
2022-11-10T04:26:26.308Z,1.88
2022-11-10T04:29:46.476Z,1.88
2022-11-10T04:33:06.712Z,1.80
2022-11-10T04:36:30.001Z,1.65
2022-11-10T04:39:50.252Z,1.77
2022-11-10T04:43:10.432Z,1.60
2022-11-10T04:46:36.983Z,1.70
2022-11-10T04:49:57.440Z,2.10
2022-11-10T04:53:18.109Z,1.90
2022-11-10T04:56:40.163Z,2.33
2022-11-10T05:00:00.264Z,2.50
2022-11-10T05:03:20.699Z,2.53
2022-11-10T05:06:41.234Z,2.70
2022-11-10T05:10:01.462Z,2.40
2022-11-10T05:13:21.824Z,2.50
2022-11-10T05:16:42.194Z,2.30
2022-11-10T05:20:02.566Z,2.45
2022-11-10T05:23:38.193Z,2.70
2022-11-10T05:26:59.445Z,2.30
2022-11-10T05:30:19.627Z,2.50
2022-11-10T05:33:39.848Z,2.60
2022-11-10T05:37:00.296Z,2.75
2022-11-10T05:40:20.472Z,3.37
2022-11-10T05:43:40.480Z,3.10
2022-11-10T05:47:00.783Z,3.00
2022-11-10T05:50:22.190Z,2.80
2022-11-10T05:53:42.321Z,2.72
2022-11-10T05:57:02.633Z,2.85
2022-11-10T06:00:25.463Z,2.90
2022-11-10T06:03:45.769Z,3.17
2022-11-10T06:07:08.038Z,3.50
2022-11-10T06:10:28.747Z,3.10
2022-11-10T06:13:48.967Z,3.20
2022-11-10T06:17:09.132Z,3.08
2022-11-10T06:20:29.651Z,3.72
2022-11-10T06:23:49.853Z,4.13
2022-11-10T06:27:09.924Z,4.07
2022-11-10T06:30:32.566Z,3.05
2022-11-10T06:33:52.569Z,3.28
2022-11-10T06:37:12.749Z,3.43
2022-11-10T06:40:33.099Z,3.10
2022-11-10T06:43:53.134Z,3.28
2022-11-10T06:47:13.322Z,2.93
2022-11-10T06:50:33.640Z,2.83
2022-11-10T06:53:53.822Z,3.92
2022-11-10T06:57:13.926Z,5.80
2022-11-10T07:00:34.219Z,6.38
2022-11-10T07:04:18.283Z,8.48
2022-11-10T07:07:34.378Z,7.63
2022-11-10T07:10:55.392Z,6.60
2022-11-10T07:14:15.472Z,6.65
2022-11-10T07:17:42.012Z,6.60
2022-11-10T07:21:03.823Z,6.77
2022-11-10T07:24:24.056Z,6.50
2022-11-10T07:27:43.889Z,6.70
2022-11-10T07:31:04.103Z,6.25
2022-11-10T07:34:24.403Z,6.03
2022-11-10T07:37:44.488Z,5.80
2022-11-10T07:41:04.716Z,5.43
2022-11-10T07:44:26.129Z,5.30
2022-11-10T07:47:46.063Z,5.00
2022-11-10T07:51:06.371Z,5.03
2022-11-10T07:54:26.417Z,5.00
2022-11-10T07:57:46.421Z,5.40
2022-11-10T08:01:06.378Z,4.50
2022-11-10T08:04:26.527Z,4.55
2022-11-10T08:07:46.630Z,4.45
2022-11-10T08:11:06.613Z,4.53
2022-11-10T08:14:26.994Z,4.40
2022-11-10T08:17:47.352Z,4.47
2022-11-10T08:21:07.511Z,4.10
2022-11-10T08:24:27.510Z,3.80
2022-11-10T08:27:47.633Z,3.43
2022-11-10T08:31:07.625Z,3.70
2022-11-10T08:34:27.986Z,3.38
2022-11-10T08:37:47.953Z,3.53
2022-11-10T08:41:08.380Z,3.85
2022-11-10T08:44:28.388Z,3.47
2022-11-10T08:47:56.551Z,3.67
2022-11-10T08:51:16.822Z,3.30
2022-11-10T08:54:36.752Z,3.08
2022-11-10T08:58:01.353Z,2.67
2022-11-10T09:01:21.508Z,2.80
2022-11-10T09:04:41.700Z,2.40
2022-11-10T09:08:02.086Z,2.25
2022-11-10T09:11:22.368Z,2.10
2022-11-10T09:14:42.355Z,2.10
2022-11-10T09:18:04.636Z,2.05
2022-11-10T09:21:24.665Z,2.00
2022-11-10T09:24:44.724Z,1.60
2022-11-10T09:28:05.192Z,1.92
2022-11-10T09:31:25.535Z,1.50
2022-11-10T09:34:50.288Z,1.40
2022-11-10T09:38:12.941Z,1.50
2022-11-10T09:41:33.393Z,1.80
2022-11-10T09:45:03.151Z,1.58
2022-11-10T09:48:32.185Z,1.52
2022-11-10T09:51:53.721Z,1.52
2022-11-10T09:55:38.836Z,1.50
2022-11-10T09:58:59.963Z,1.50
2022-11-10T10:02:31.156Z,1.73
2022-11-10T10:06:02.613Z,1.67
2022-11-10T10:09:28.302Z,1.80
2022-11-10T10:12:48.365Z,2.00
2022-11-10T10:16:27.315Z,1.70
2022-11-10T10:19:58.037Z,1.70
2022-11-10T10:24:02.115Z,1.70
2022-11-10T10:27:20.439Z,1.70
2022-11-10T10:30:41.628Z,1.70
2022-11-10T10:34:02.204Z,1.80
2022-11-10T10:37:53.293Z,1.77
2022-11-10T10:41:24.189Z,1.60
2022-11-10T10:45:31.077Z,1.40
2022-11-10T10:49:27.972Z,1.77
2022-11-10T10:53:16.993Z,1.70
2022-11-10T10:56:38.127Z,1.50
2022-11-10T11:00:23.765Z,1.77
2022-11-10T11:03:52.108Z,1.38
2022-11-10T11:07:24.545Z,1.58
2022-11-10T11:10:46.365Z,1.70
2022-11-10T11:14:23.559Z,1.65
2022-11-10T11:17:59.455Z,1.50
2022-11-10T11:21:35.006Z,1.67
2022-11-10T11:25:13.495Z,1.70
2022-11-10T11:29:17.960Z,1.85
2022-11-10T11:33:21.372Z,1.77
2022-11-10T11:37:19.711Z,1.70
2022-11-10T11:41:32.420Z,1.50
2022-11-10T11:45:22.185Z,2.00
2022-11-10T11:48:48.946Z,1.70
2022-11-10T11:52:53.653Z,1.33
2022-11-10T11:56:35.490Z,1.50
2022-11-10T12:00:15.657Z,1.48
2022-11-10T12:04:03.743Z,1.50
2022-11-10T12:07:54.610Z,1.42
2022-11-10T12:11:49.859Z,1.50
2022-11-10T12:15:48.177Z,1.70
2022-11-10T12:19:46.856Z,1.73
2022-11-10T12:23:34.503Z,1.33
2022-11-10T12:27:11.795Z,1.30
2022-11-10T12:30:34.279Z,1.52
2022-11-10T12:34:05.189Z,1.50
2022-11-10T12:37:32.432Z,1.60
2022-11-10T12:41:02.808Z,1.60
2022-11-10T12:44:31.158Z,1.60
2022-11-10T12:47:53.098Z,1.40
2022-11-10T12:51:21.663Z,1.77
2022-11-10T12:54:46.385Z,1.67
2022-11-10T12:58:11.184Z,1.50
2022-11-10T13:01:31.797Z,1.90
2022-11-10T13:05:09.490Z,1.70
2022-11-10T13:08:42.017Z,1.98
2022-11-10T13:12:10.741Z,1.77
2022-11-10T13:15:47.296Z,1.73
2022-11-10T13:19:34.500Z,1.70
2022-11-10T13:22:54.488Z,1.65
2022-11-10T13:26:39.626Z,1.52
2022-11-10T13:30:00.268Z,1.40
2022-11-10T13:33:23.350Z,1.30
2022-11-10T13:36:45.968Z,1.60
2022-11-10T13:40:18.350Z,1.30
2022-11-10T13:43:48.453Z,1.65
2022-11-10T13:47:08.745Z,1.40
2022-11-10T13:50:38.887Z,1.65
2022-11-10T13:54:07.307Z,1.53
2022-11-10T13:57:38.940Z,1.42
2022-11-10T14:01:17.399Z,1.75
2022-11-10T14:04:43.868Z,1.35
2022-11-10T14:08:17.607Z,1.53
2022-11-10T14:11:49.488Z,1.38
2022-11-10T14:15:18.559Z,1.25
2022-11-10T14:18:41.428Z,1.45
2022-11-10T14:22:13.090Z,1.40
2022-11-10T14:25:40.884Z,1.90
2022-11-10T14:29:29.214Z,1.77
2022-11-10T14:33:12.764Z,1.95
2022-11-10T14:36:33.049Z,1.70
2022-11-10T14:39:57.009Z,1.65
2022-11-10T14:43:31.552Z,1.60
2022-11-10T14:46:52.543Z,1.60
2022-11-10T14:50:21.013Z,1.60
2022-11-10T14:53:47.753Z,2.00
2022-11-10T14:57:07.967Z,2.10
2022-11-10T15:00:28.737Z,2.17
2022-11-10T15:03:48.964Z,2.10
2022-11-10T15:07:09.556Z,1.77
2022-11-10T15:10:39.373Z,2.25
2022-11-10T15:13:59.603Z,2.00
2022-11-10T15:17:20.365Z,2.10
2022-11-10T15:20:41.100Z,2.53
2022-11-10T15:24:05.749Z,2.40
2022-11-10T15:27:29.024Z,2.20
2022-11-10T15:30:59.168Z,2.10
2022-11-10T15:34:44.263Z,2.40
2022-11-10T15:38:06.973Z,2.75
2022-11-10T15:41:27.777Z,3.10
2022-11-10T15:44:48.647Z,3.10
2022-11-10T15:48:16.844Z,3.20
2022-11-10T15:51:36.926Z,3.08
2022-11-10T15:54:57.084Z,2.80
2022-11-10T15:58:19.282Z,2.83
2022-11-10T16:01:39.507Z,3.20
2022-11-10T16:05:00.247Z,3.13
2022-11-10T16:08:23.482Z,3.38
2022-11-10T16:11:44.768Z,3.30
2022-11-10T16:15:06.328Z,3.28
2022-11-10T16:18:28.979Z,3.35
2022-11-10T16:21:49.112Z,3.70
2022-11-10T16:25:18.308Z,3.15
2022-11-10T16:28:44.010Z,3.20
2022-11-10T16:32:04.191Z,2.90
2022-11-10T16:35:24.728Z,2.85
2022-11-10T16:38:44.983Z,3.00
2022-11-10T16:42:05.342Z,2.97
2022-11-10T16:45:30.099Z,2.43
2022-11-10T16:48:53.221Z,2.65
2022-11-10T16:52:18.840Z,2.65
2022-11-10T16:55:38.837Z,2.90
2022-11-10T16:58:58.940Z,2.72
2022-11-10T17:02:33.678Z,2.72
2022-11-10T17:05:53.994Z,3.00
2022-11-10T17:09:17.746Z,3.25
2022-11-10T17:12:38.095Z,3.95
2022-11-10T17:16:07.696Z,4.13
2022-11-10T17:19:27.884Z,4.30
2022-11-10T17:22:49.725Z,4.68
2022-11-10T17:26:12.690Z,5.00
2022-11-10T17:29:33.216Z,5.37
2022-11-10T17:33:04.871Z,7.32
2022-11-10T17:36:25.683Z,8.40
2022-11-10T17:39:45.853Z,9.90
2022-11-10T17:43:06.391Z,12.35
2022-11-10T17:46:26.719Z,11.80
2022-11-10T17:49:47.106Z,25.25
2022-11-10T17:53:14.430Z,17.50
2022-11-10T17:56:34.412Z,13.07
2022-11-10T17:59:55.436Z,11.23
2022-11-10T18:03:17.503Z,9.60
2022-11-10T18:06:37.731Z,9.90
2022-11-10T18:09:57.877Z,10.27
2022-11-10T18:13:21.425Z,12.32
2022-11-10T18:16:41.884Z,12.25
2022-11-10T18:20:02.162Z,11.70
2022-11-10T18:23:22.419Z,11.38
2022-11-10T18:26:43.116Z,11.73
2022-11-10T18:30:05.120Z,14.30
2022-11-10T18:33:25.296Z,14.25
2022-11-10T18:36:45.536Z,13.23
2022-11-10T18:40:06.373Z,13.55
2022-11-10T18:43:26.614Z,13.95
2022-11-10T18:46:48.204Z,13.27
2022-11-10T18:50:09.077Z,13.35
2022-11-10T18:53:37.006Z,14.60
2022-11-10T18:56:58.495Z,11.52
2022-11-10T19:00:19.010Z,13.00
2022-11-10T19:03:39.273Z,11.98
2022-11-10T19:06:59.510Z,11.35
2022-11-10T19:10:19.747Z,10.83
2022-11-10T19:13:40.204Z,9.25
2022-11-10T19:17:00.642Z,8.68
2022-11-10T19:20:20.487Z,12.93
2022-11-10T19:23:41.071Z,14.60
2022-11-10T19:27:01.155Z,10.43
2022-11-10T19:30:21.092Z,13.38
2022-11-10T19:33:43.861Z,12.73
2022-11-10T19:37:05.723Z,14.65
2022-11-10T19:40:26.214Z,14.00
2022-11-10T19:43:47.722Z,14.23
2022-11-10T19:47:08.254Z,14.43
2022-11-10T19:50:28.462Z,13.95
2022-11-10T19:53:54.647Z,15.95
2022-11-10T19:57:14.740Z,14.30
2022-11-10T20:00:34.644Z,17.13
2022-11-10T20:03:54.640Z,15.73
2022-11-10T20:07:33.467Z,13.97
2022-11-10T20:10:54.233Z,17.90
2022-11-10T20:14:14.111Z,25.92
2022-11-10T20:17:34.248Z,24.10
2022-11-10T20:20:54.649Z,18.75
2022-11-10T20:24:14.955Z,21.60
2022-11-10T20:27:35.392Z,14.85
2022-11-10T20:30:57.551Z,13.90
2022-11-10T20:34:17.463Z,13.10
2022-11-10T20:37:37.767Z,11.13
2022-11-10T20:41:10.851Z,10.37
2022-11-10T20:44:31.426Z,12.35
2022-11-10T20:47:51.632Z,12.63
2022-11-10T20:51:14.739Z,16.37
2022-11-10T20:54:34.895Z,17.00
2022-11-10T20:57:54.766Z,17.83
2022-11-10T21:01:15.776Z,16.48
2022-11-10T21:04:40.320Z,16.20
2022-11-10T21:08:03.139Z,15.40
2022-11-10T21:11:42.184Z,13.57
2022-11-10T21:15:02.671Z,11.97
2022-11-10T21:18:28.902Z,12.93
2022-11-10T21:21:49.387Z,12.25
2022-11-10T21:25:09.641Z,13.50
2022-11-10T21:28:29.940Z,12.43
2022-11-10T21:31:49.829Z,13.18
2022-11-10T21:35:10.030Z,12.88
2022-11-10T21:38:30.064Z,12.57
2022-11-10T21:41:50.131Z,13.55
2022-11-10T21:45:10.942Z,13.93
2022-11-10T21:48:30.864Z,13.07
2022-11-10T21:51:52.609Z,12.85
2022-11-10T21:55:12.999Z,14.02
2022-11-10T21:58:34.117Z,13.57
2022-11-10T22:01:54.373Z,12.68
2022-11-10T22:05:14.992Z,12.48
2022-11-10T22:08:36.499Z,11.43
2022-11-10T22:12:15.093Z,10.75
2022-11-10T22:15:54.092Z,10.48
2022-11-10T22:19:14.725Z,10.05
2022-11-10T22:22:34.911Z,9.33
2022-11-10T22:25:55.188Z,9.25
2022-11-10T22:29:15.470Z,9.32
2022-11-10T22:32:35.536Z,9.90
2022-11-10T22:35:57.971Z,10.23
2022-11-10T22:39:18.962Z,9.50
2022-11-10T22:42:57.524Z,9.60
2022-11-10T22:46:17.684Z,8.70
2022-11-10T22:49:37.979Z,7.78
2022-11-10T22:52:58.012Z,8.05
2022-11-10T22:56:19.241Z,7.40
2022-11-10T22:59:39.494Z,7.55
2022-11-10T23:02:59.728Z,7.43
2022-11-10T23:06:20.644Z,6.97
2022-11-10T23:09:40.629Z,6.20
2022-11-10T23:13:00.743Z,6.68
2022-11-10T23:16:26.372Z,7.88
2022-11-10T23:19:46.586Z,7.97
2022-11-10T23:23:06.566Z,7.53
2022-11-10T23:26:33.850Z,6.78
2022-11-10T23:29:54.300Z,6.67
2022-11-10T23:33:14.544Z,7.40
2022-11-10T23:36:34.536Z,7.43
2022-11-10T23:39:54.447Z,7.47
2022-11-10T23:43:15.399Z,6.82
2022-11-10T23:46:35.616Z,6.93
2022-11-10T23:49:56.017Z,7.60
2022-11-10T23:53:16.837Z,7.07
2022-11-10T23:56:37.117Z,7.20
2022-11-10T23:59:57.301Z,7.50
